createdAt,value
2022-09-01T00:00:29.978Z,3.67
2022-09-01T00:02:58.646Z,4.30
2022-09-01T00:05:27.325Z,4.30
2022-09-01T00:07:55.839Z,3.50
2022-09-01T00:10:24.542Z,4.77
2022-09-01T00:12:54.531Z,4.20
2022-09-01T00:15:23.087Z,3.90
2022-09-01T00:17:51.737Z,4.27
2022-09-01T00:20:20.978Z,4.30
2022-09-01T00:22:49.733Z,4.17
2022-09-01T00:25:20.091Z,4.13
2022-09-01T00:27:49.312Z,5.50
2022-09-01T00:30:19.917Z,5.50
2022-09-01T00:32:54.657Z,5.40
2022-09-01T00:35:23.327Z,5.33
2022-09-01T00:37:52.184Z,5.50
2022-09-01T00:40:20.956Z,4.80
2022-09-01T00:42:50.151Z,4.83
2022-09-01T00:45:21.733Z,5.10
2022-09-01T00:47:51.828Z,4.70
2022-09-01T00:50:20.805Z,4.40
2022-09-01T00:52:51.123Z,4.27
2022-09-01T00:55:23.471Z,4.03
2022-09-01T00:57:52.137Z,3.70
2022-09-01T01:00:23.504Z,3.90
2022-09-01T01:02:55.853Z,3.90
2022-09-01T01:05:27.829Z,4.20
2022-09-01T01:07:57.405Z,4.37
2022-09-01T01:10:26.688Z,4.33
2022-09-01T01:12:56.239Z,4.50
2022-09-01T01:15:26.141Z,4.13
2022-09-01T01:17:54.644Z,4.23
2022-09-01T01:20:43.063Z,4.70
2022-09-01T01:23:16.817Z,4.00
2022-09-01T01:25:49.205Z,4.23
2022-09-01T01:28:20.537Z,4.10
2022-09-01T01:30:54.407Z,4.83
2022-09-01T01:33:23.876Z,4.20
2022-09-01T01:35:53.421Z,4.27
2022-09-01T01:38:22.936Z,4.27
2022-09-01T01:40:54.861Z,4.07
2022-09-01T01:43:26.436Z,4.30
2022-09-01T01:45:56.743Z,4.47
2022-09-01T01:48:29.287Z,3.97
2022-09-01T01:51:00.862Z,4.20
2022-09-01T01:53:30.105Z,4.60
2022-09-01T01:56:01.029Z,3.97
2022-09-01T01:58:34.817Z,3.80
2022-09-01T02:01:08.413Z,3.53
2022-09-01T02:03:38.589Z,3.40
2022-09-01T02:06:09.797Z,3.83
2022-09-01T02:08:39.249Z,3.70
2022-09-01T02:11:09.599Z,3.50
2022-09-01T02:13:38.401Z,3.20
2022-09-01T02:16:12.063Z,3.70
2022-09-01T02:18:44.396Z,3.63
2022-09-01T02:21:19.601Z,4.03
2022-09-01T02:23:49.586Z,3.80
2022-09-01T02:26:25.059Z,3.83
2022-09-01T02:28:55.955Z,4.10
2022-09-01T02:31:28.494Z,4.03
2022-09-01T02:34:01.076Z,4.27
2022-09-01T02:36:32.793Z,3.90
2022-09-01T02:39:01.785Z,3.87
2022-09-01T02:41:32.701Z,2.97
2022-09-01T02:44:02.390Z,3.73
2022-09-01T02:46:31.677Z,4.30
2022-09-01T02:49:01.566Z,4.30
2022-09-01T02:51:30.156Z,3.40
2022-09-01T02:53:58.988Z,3.97
2022-09-01T02:56:28.031Z,3.47
2022-09-01T02:59:00.277Z,3.60
2022-09-01T03:01:30.235Z,4.07
2022-09-01T03:04:00.837Z,3.90
2022-09-01T03:06:31.446Z,3.67
2022-09-01T03:09:00.712Z,3.70
2022-09-01T03:11:30.219Z,3.60
2022-09-01T03:14:00.406Z,4.00
2022-09-01T03:16:31.312Z,4.37
2022-09-01T03:19:03.181Z,3.43
2022-09-01T03:21:32.520Z,2.93
2022-09-01T03:24:03.755Z,3.20
2022-09-01T03:26:33.099Z,3.40
2022-09-01T03:29:02.991Z,3.90
2022-09-01T03:31:32.117Z,3.57
2022-09-01T03:34:05.980Z,3.43
2022-09-01T03:36:39.685Z,3.57
2022-09-01T03:39:14.523Z,3.50
2022-09-01T03:41:45.210Z,4.10
2022-09-01T03:44:16.520Z,3.83
2022-09-01T03:46:46.862Z,3.50
2022-09-01T03:49:25.024Z,4.00
2022-09-01T03:51:54.044Z,4.00
2022-09-01T03:54:24.862Z,3.53
2022-09-01T03:56:55.225Z,3.73
2022-09-01T03:59:27.001Z,4.00
2022-09-01T04:01:56.830Z,3.50
2022-09-01T04:04:25.900Z,4.23
2022-09-01T04:06:54.541Z,4.50
2022-09-01T04:09:23.100Z,4.30
2022-09-01T04:11:53.065Z,3.80
2022-09-01T04:14:22.654Z,3.90
2022-09-01T04:17:10.657Z,4.23
2022-09-01T04:19:39.898Z,4.20
2022-09-01T04:22:17.749Z,4.10
2022-09-01T04:24:47.241Z,3.53
2022-09-01T04:27:21.641Z,4.50
2022-09-01T04:29:50.262Z,3.80
2022-09-01T04:32:22.083Z,4.10
2022-09-01T04:34:55.441Z,4.00
2022-09-01T04:37:24.211Z,3.97
2022-09-01T04:39:57.694Z,3.77
2022-09-01T04:42:29.038Z,4.20
2022-09-01T04:44:59.937Z,4.13
2022-09-01T04:47:36.010Z,4.17
2022-09-01T04:50:14.421Z,4.07
2022-09-01T04:52:47.835Z,5.20
2022-09-01T04:55:44.223Z,3.73
2022-09-01T04:58:14.041Z,3.87
2022-09-01T05:00:44.877Z,4.23
2022-09-01T05:03:14.911Z,3.67
2022-09-01T05:05:55.509Z,4.67
2022-09-01T05:08:25.196Z,4.60
2022-09-01T05:10:59.677Z,4.60
2022-09-01T05:13:40.376Z,3.80
2022-09-01T05:16:12.933Z,3.70
2022-09-01T05:18:46.758Z,3.50
2022-09-01T05:21:17.309Z,4.17
2022-09-01T05:23:46.998Z,4.80
2022-09-01T05:26:20.856Z,4.30
2022-09-01T05:28:50.573Z,4.00
2022-09-01T05:31:19.784Z,4.47
2022-09-01T05:33:51.103Z,4.50
2022-09-01T05:36:21.702Z,3.93
2022-09-01T05:38:52.324Z,4.33
2022-09-01T05:41:24.087Z,3.50
2022-09-01T05:44:00.117Z,4.00
2022-09-01T05:46:30.121Z,3.93
2022-09-01T05:49:02.817Z,4.40
2022-09-01T05:51:44.348Z,3.80
2022-09-01T05:54:15.155Z,4.10
2022-09-01T05:56:44.853Z,3.90
2022-09-01T05:59:26.223Z,4.70
2022-09-01T06:02:09.400Z,4.17
2022-09-01T06:04:42.147Z,3.67
2022-09-01T06:07:16.340Z,3.83
2022-09-01T06:09:53.691Z,3.40
2022-09-01T06:12:24.941Z,3.07
2022-09-01T06:14:55.455Z,3.43
2022-09-01T06:17:25.831Z,3.00
2022-09-01T06:19:58.515Z,3.63
2022-09-01T06:22:29.000Z,3.13
2022-09-01T06:25:02.610Z,2.40
2022-09-01T06:27:41.206Z,2.63
2022-09-01T06:30:15.317Z,2.53
2022-09-01T06:32:53.790Z,2.53
2022-09-01T06:35:30.101Z,2.50
2022-09-01T06:38:01.916Z,1.97
2022-09-01T06:40:42.145Z,1.97
2022-09-01T06:43:12.449Z,1.83
2022-09-01T06:45:44.433Z,2.30
2022-09-01T06:48:16.580Z,1.57
2022-09-01T06:53:36.067Z,1.50
2022-09-01T06:56:08.953Z,1.50
2022-09-01T06:58:38.247Z,1.70
2022-09-01T07:01:16.069Z,1.53
2022-09-01T07:03:45.136Z,1.37
2022-09-01T07:09:47.990Z,1.97
2022-09-01T07:12:26.281Z,1.63
2022-09-01T07:17:49.927Z,1.43
2022-09-01T07:20:23.792Z,1.40
2022-09-01T07:23:11.013Z,1.43
2022-09-01T07:26:02.197Z,1.37
2022-09-01T07:28:36.907Z,1.40
2022-09-01T07:34:37.657Z,1.60
2022-09-01T07:39:50.251Z,1.50
2022-09-01T07:45:47.293Z,1.40
2022-09-01T07:53:58.426Z,1.47
2022-09-01T07:56:30.550Z,1.30
2022-09-01T07:59:00.221Z,1.27
2022-09-01T08:01:29.839Z,1.40
2022-09-01T08:03:59.913Z,1.40
2022-09-01T08:06:37.969Z,1.60
2022-09-01T08:09:10.752Z,1.40
2022-09-01T08:14:34.990Z,1.58
2022-09-01T08:19:53.605Z,1.33
2022-09-01T08:22:37.296Z,1.40
2022-09-01T08:25:24.228Z,1.20
2022-09-01T08:28:01.143Z,1.05
2022-09-01T08:30:32.393Z,1.25
2022-09-01T08:33:11.037Z,1.30
2022-09-01T08:35:45.396Z,1.30
2022-09-01T08:38:14.325Z,1.70
2022-09-01T08:40:45.103Z,1.50
2022-09-01T08:43:20.654Z,1.30
2022-09-01T08:45:53.517Z,1.30
2022-09-01T08:51:19.979Z,1.40
2022-09-01T08:54:05.308Z,1.40
2022-09-01T08:56:36.428Z,1.33
2022-09-01T08:59:09.373Z,1.30
2022-09-01T09:02:01.891Z,1.40
2022-09-01T09:04:36.117Z,1.20
2022-09-01T09:07:08.057Z,1.20
2022-09-01T09:09:39.657Z,1.45
2022-09-01T09:12:16.517Z,1.50
2022-09-01T09:14:57.128Z,1.33
2022-09-01T09:17:30.258Z,1.50
2022-09-01T09:19:59.235Z,1.50
2022-09-01T09:22:27.910Z,1.50
2022-09-01T09:25:00.385Z,1.50
2022-09-01T09:27:33.510Z,1.70
2022-09-01T09:30:09.226Z,1.80
2022-09-01T09:33:15.345Z,1.50
2022-09-01T09:35:36.316Z,1.40
2022-09-01T09:38:28.453Z,1.40
2022-09-01T09:41:18.951Z,1.38
2022-09-01T09:43:52.010Z,1.45
2022-09-01T09:46:26.942Z,1.27
2022-09-01T09:49:09.170Z,1.70
2022-09-01T09:51:38.306Z,1.30
2022-09-01T09:54:17.786Z,1.40
2022-09-01T09:56:46.688Z,1.30
2022-09-01T09:59:33.933Z,1.30
2022-09-01T10:02:28.300Z,1.33
2022-09-01T10:04:57.348Z,1.40
2022-09-01T10:07:28.124Z,1.48
2022-09-01T10:09:57.751Z,1.40
2022-09-01T10:12:27.160Z,1.50
2022-09-01T10:14:57.351Z,1.40
2022-09-01T10:17:30.882Z,1.40
2022-09-01T10:20:05.256Z,1.65
2022-09-01T10:22:34.410Z,1.50
2022-09-01T10:25:03.401Z,1.95
2022-09-01T10:27:34.531Z,1.70
2022-09-01T10:30:18.468Z,1.70
2022-09-01T10:32:55.262Z,1.92
2022-09-01T10:35:26.914Z,1.70
2022-09-01T10:37:58.041Z,1.90
2022-09-01T10:40:43.203Z,1.92
2022-09-01T10:43:30.671Z,1.90
2022-09-01T10:46:15.625Z,1.83
2022-09-01T10:48:55.385Z,1.90
2022-09-01T10:51:51.540Z,2.10
2022-09-01T10:54:57.673Z,2.10
2022-09-01T10:57:42.975Z,1.67
2022-09-01T11:00:35.515Z,2.00
2022-09-01T11:03:32.856Z,2.08
2022-09-01T11:06:12.321Z,2.00
2022-09-01T11:08:48.280Z,1.88
2022-09-01T11:11:28.437Z,1.80
2022-09-01T11:13:58.854Z,1.75
2022-09-01T11:16:49.141Z,1.90
2022-09-01T11:19:27.606Z,2.00
2022-09-01T11:22:07.539Z,1.95
2022-09-01T11:25:12.300Z,1.92
2022-09-01T11:27:59.362Z,2.20
2022-09-01T11:30:35.839Z,2.30
2022-09-01T11:33:09.420Z,1.90
2022-09-01T11:35:38.288Z,2.10
2022-09-01T11:38:09.291Z,2.20
2022-09-01T11:40:38.162Z,2.00
2022-09-01T11:43:12.454Z,2.22
2022-09-01T11:45:44.893Z,2.13
2022-09-01T11:48:15.320Z,2.10
2022-09-01T11:50:44.863Z,1.90
2022-09-01T11:53:16.357Z,1.95
2022-09-01T11:55:45.853Z,2.20
2022-09-01T11:58:31.356Z,2.27
2022-09-01T12:01:13.371Z,2.20
2022-09-01T12:03:42.561Z,2.40
2022-09-01T12:06:12.305Z,2.25
2022-09-01T12:08:43.457Z,2.20
2022-09-01T12:11:13.047Z,2.50
2022-09-01T12:13:42.891Z,2.08
2022-09-01T12:16:18.320Z,2.00
2022-09-01T12:18:48.522Z,2.60
2022-09-01T12:21:21.438Z,2.40
2022-09-01T12:23:51.656Z,2.70
2022-09-01T12:26:21.567Z,2.40
2022-09-01T12:28:50.946Z,1.93
2022-09-01T12:31:21.423Z,2.10
2022-09-01T12:33:50.340Z,1.90
2022-09-01T12:36:26.057Z,2.10
2022-09-01T12:38:59.289Z,2.40
2022-09-01T12:41:33.539Z,1.90
2022-09-01T12:44:17.063Z,2.00
2022-09-01T12:46:46.974Z,2.30
2022-09-01T12:49:19.026Z,2.28
2022-09-01T12:51:48.616Z,2.37
2022-09-01T12:54:26.093Z,2.80
2022-09-01T12:56:55.836Z,2.30
2022-09-01T12:59:25.430Z,2.10
2022-09-01T13:02:24.097Z,2.60
2022-09-01T13:04:52.833Z,2.57
2022-09-01T13:07:21.585Z,2.57
2022-09-01T13:09:51.629Z,2.10
2022-09-01T13:12:23.369Z,2.20
2022-09-01T13:14:52.275Z,2.20
2022-09-01T13:17:21.575Z,2.60
2022-09-01T13:19:50.261Z,2.30
2022-09-01T13:22:18.909Z,2.47
2022-09-01T13:24:48.006Z,2.37
2022-09-01T13:27:21.677Z,2.70
2022-09-01T13:29:50.749Z,2.37
2022-09-01T13:32:21.350Z,2.13
2022-09-01T13:34:51.834Z,2.10
2022-09-01T13:37:21.411Z,2.40
2022-09-01T13:39:50.060Z,2.30
2022-09-01T13:42:20.402Z,1.90
2022-09-01T13:44:52.530Z,2.35
2022-09-01T13:47:28.890Z,2.10
2022-09-01T13:50:06.937Z,2.20
2022-09-01T13:52:37.105Z,2.08
2022-09-01T13:55:06.273Z,1.90
2022-09-01T13:57:36.971Z,2.00
2022-09-01T14:04:36.416Z,1.90
2022-09-01T14:07:05.917Z,2.10
2022-09-01T14:09:34.452Z,2.00
2022-09-01T14:12:03.149Z,1.75
2022-09-01T14:17:23.325Z,2.00
2022-09-01T14:19:51.612Z,2.10
2022-09-01T14:22:20.152Z,2.20
2022-09-01T14:24:48.417Z,1.90
2022-09-01T14:27:16.784Z,2.30
2022-09-01T14:29:50.193Z,1.80
2022-09-01T14:32:26.929Z,1.90
2022-09-01T14:34:55.396Z,2.10
2022-09-01T14:37:23.985Z,1.95
2022-09-01T14:39:52.412Z,1.90
2022-09-01T14:42:20.787Z,1.90
2022-09-01T14:44:50.449Z,3.77
2022-09-01T14:47:19.303Z,2.63
2022-09-01T14:49:49.157Z,2.08
2022-09-01T14:52:18.572Z,1.70
2022-09-01T14:54:46.897Z,1.88
2022-09-01T14:57:37.782Z,1.80
2022-09-01T15:00:06.147Z,1.80
2022-09-01T15:02:34.592Z,1.70
2022-09-01T15:05:02.941Z,2.60
2022-09-01T15:07:31.336Z,2.10
2022-09-01T15:09:59.742Z,1.90
2022-09-01T15:12:30.770Z,2.20
2022-09-01T15:14:59.397Z,2.00
2022-09-01T15:17:29.486Z,1.83
2022-09-01T15:20:18.129Z,2.10
2022-09-01T15:22:46.912Z,1.83
2022-09-01T15:25:15.271Z,1.70
2022-09-01T15:27:43.764Z,1.60
2022-09-01T15:30:16.924Z,1.80
2022-09-01T15:32:50.850Z,1.60
2022-09-01T15:35:21.219Z,1.67
2022-09-01T15:37:50.158Z,1.40
2022-09-01T15:40:19.387Z,2.08
2022-09-01T15:42:47.900Z,1.90
2022-09-01T15:45:17.036Z,1.80
2022-09-01T15:47:48.217Z,2.00
2022-09-01T15:50:21.917Z,1.73
2022-09-01T15:52:52.056Z,1.70
2022-09-01T15:55:21.291Z,1.53
2022-09-01T15:57:50.040Z,1.80
2022-09-01T16:00:18.895Z,1.80
2022-09-01T16:02:48.592Z,1.60
2022-09-01T16:05:17.777Z,1.70
2022-09-01T16:07:46.286Z,1.70
2022-09-01T16:10:14.849Z,1.90
2022-09-01T16:12:44.116Z,2.00
2022-09-01T16:15:14.307Z,1.90
2022-09-01T16:17:58.271Z,1.90
2022-09-01T16:20:27.764Z,1.80
2022-09-01T16:22:57.617Z,1.65
2022-09-01T16:25:27.809Z,1.53
2022-09-01T16:27:56.244Z,2.00
2022-09-01T16:30:28.565Z,1.70
2022-09-01T16:33:00.646Z,1.60
2022-09-01T16:35:36.071Z,1.50
2022-09-01T16:38:11.412Z,1.60
2022-09-01T16:40:45.217Z,1.80
2022-09-01T16:43:19.304Z,2.00
2022-09-01T16:45:50.877Z,1.45
2022-09-01T16:48:23.929Z,1.73
2022-09-01T16:50:56.899Z,1.50
2022-09-01T16:53:33.700Z,1.50
2022-09-01T16:56:03.682Z,1.60
2022-09-01T16:58:43.148Z,1.80
2022-09-01T17:01:17.159Z,1.50
2022-09-01T17:03:57.246Z,1.40
2022-09-01T17:06:31.778Z,1.30
2022-09-01T17:09:08.379Z,1.33
2022-09-01T17:11:39.230Z,1.60
2022-09-01T17:14:09.091Z,1.50
2022-09-01T17:16:40.642Z,1.40
2022-09-01T17:19:12.903Z,1.27
2022-09-01T17:21:42.988Z,1.65
2022-09-01T17:24:16.349Z,1.60
2022-09-01T17:26:50.670Z,1.70
2022-09-01T17:29:24.471Z,1.60
2022-09-01T17:31:59.846Z,1.40
2022-09-01T17:34:34.908Z,1.50
2022-09-01T17:37:08.535Z,1.70
2022-09-01T17:39:41.109Z,1.38
2022-09-01T17:42:14.386Z,1.50
2022-09-01T17:44:47.005Z,1.60
2022-09-01T17:47:21.340Z,1.70
2022-09-01T17:49:55.249Z,1.60
2022-09-01T17:52:27.428Z,1.60
2022-09-01T17:54:59.179Z,1.70
2022-09-01T17:57:30.416Z,1.70
2022-09-01T18:00:02.704Z,1.80
2022-09-01T18:02:50.641Z,1.40
2022-09-01T18:05:23.288Z,1.58
2022-09-01T18:08:10.059Z,1.88
2022-09-01T18:10:40.339Z,1.50
2022-09-01T18:13:10.935Z,1.75
2022-09-01T18:15:43.325Z,1.47
2022-09-01T18:18:27.634Z,1.50
2022-09-01T18:20:59.599Z,2.20
2022-09-01T18:23:31.745Z,1.70
2022-09-01T18:26:04.649Z,1.70
2022-09-01T18:28:33.144Z,2.20
2022-09-01T18:31:03.469Z,1.50
2022-09-01T18:33:34.926Z,1.67
2022-09-01T18:36:13.861Z,1.80
2022-09-01T18:38:44.591Z,2.00
2022-09-01T18:41:19.725Z,1.98
2022-09-01T18:43:52.092Z,1.83
2022-09-01T18:46:24.793Z,1.60
2022-09-01T18:49:00.890Z,1.90
2022-09-01T18:51:39.371Z,2.00
2022-09-01T18:54:11.209Z,1.88
2022-09-01T18:56:42.723Z,1.50
2022-09-01T18:59:17.596Z,1.73
2022-09-01T19:01:50.591Z,1.55
2022-09-01T19:04:22.675Z,1.85
2022-09-01T19:06:59.887Z,1.65
2022-09-01T19:09:31.187Z,1.73
2022-09-01T19:12:10.446Z,1.70
2022-09-01T19:14:42.867Z,1.60
2022-09-01T19:17:23.893Z,2.05
2022-09-01T19:19:57.536Z,1.77
2022-09-01T19:22:32.084Z,1.90
2022-09-01T19:25:18.269Z,2.00
2022-09-01T19:27:49.079Z,1.90
2022-09-01T19:30:17.871Z,2.00
2022-09-01T19:32:46.471Z,1.73
2022-09-01T19:35:16.599Z,1.80
2022-09-01T19:37:50.644Z,1.90
2022-09-01T19:40:24.722Z,1.70
2022-09-01T19:42:56.777Z,2.13
2022-09-01T19:45:29.243Z,2.00
2022-09-01T19:48:01.236Z,2.00
2022-09-01T19:50:32.685Z,1.83
2022-09-01T19:53:05.712Z,1.60
2022-09-01T19:55:37.337Z,1.90
2022-09-01T19:58:07.889Z,1.75
2022-09-01T20:00:50.731Z,1.77
2022-09-01T20:03:22.543Z,1.80
2022-09-01T20:05:53.725Z,1.60
2022-09-01T20:08:28.101Z,2.28
2022-09-01T20:10:59.840Z,1.70
2022-09-01T20:13:46.590Z,2.80
2022-09-01T20:16:24.328Z,1.60
2022-09-01T20:18:55.483Z,1.90
2022-09-01T20:21:24.108Z,1.80
2022-09-01T20:23:55.864Z,1.90
2022-09-01T20:26:26.952Z,1.98
2022-09-01T20:28:58.013Z,1.70
2022-09-01T20:31:29.680Z,1.40
2022-09-01T20:34:01.461Z,1.73
2022-09-01T20:36:32.996Z,1.73
2022-09-01T20:39:23.695Z,1.40
2022-09-01T20:41:58.279Z,1.80
2022-09-01T20:44:34.028Z,1.73
2022-09-01T20:47:04.909Z,1.50
2022-09-01T20:49:34.695Z,1.70
2022-09-01T20:52:07.135Z,1.40
2022-09-01T20:54:42.093Z,1.60
2022-09-01T20:57:15.392Z,1.60
2022-09-01T20:59:47.099Z,1.52
2022-09-01T21:02:22.658Z,1.42
2022-09-01T21:04:54.780Z,1.30
2022-09-01T21:07:31.089Z,1.45
2022-09-01T21:10:04.730Z,1.30
2022-09-01T21:12:36.895Z,1.40
2022-09-01T21:15:11.972Z,1.50
2022-09-01T21:17:43.678Z,1.33
2022-09-01T21:20:15.538Z,1.30
2022-09-01T21:22:44.119Z,1.50
2022-09-01T21:25:14.027Z,1.40
2022-09-01T21:27:44.939Z,1.17
2022-09-01T21:30:15.077Z,1.23
2022-09-01T21:32:43.863Z,1.30
2022-09-01T21:35:13.934Z,1.50
2022-09-01T21:38:07.839Z,1.40
2022-09-01T21:40:38.023Z,1.23
2022-09-01T21:43:08.133Z,1.48
2022-09-01T21:45:38.375Z,1.42
2022-09-01T21:48:07.322Z,1.65
2022-09-01T21:50:35.977Z,1.30
2022-09-01T21:53:04.524Z,1.30
2022-09-01T21:55:33.108Z,1.30
2022-09-01T21:58:03.175Z,1.40
2022-09-01T22:00:33.308Z,1.40
2022-09-01T22:03:02.051Z,1.40
2022-09-01T22:05:33.234Z,1.23
2022-09-01T22:08:03.030Z,1.25
2022-09-01T22:10:32.478Z,1.50
2022-09-01T22:13:03.851Z,1.40
2022-09-01T22:15:32.599Z,1.27
2022-09-01T22:18:02.210Z,1.27
2022-09-01T22:20:32.183Z,1.00
2022-09-01T22:23:02.503Z,1.35
2022-09-01T22:25:32.358Z,0.90
2022-09-01T22:28:03.172Z,1.30
2022-09-01T22:30:31.839Z,1.20
2022-09-01T22:33:00.746Z,1.38
2022-09-01T22:35:29.295Z,1.30
2022-09-01T22:37:57.919Z,1.30
2022-09-01T22:40:26.466Z,1.10
2022-09-01T22:42:55.007Z,1.38
2022-09-01T22:45:24.948Z,1.20
2022-09-01T22:47:53.470Z,1.20
2022-09-01T22:50:22.146Z,1.15
2022-09-01T22:52:50.667Z,1.17
2022-09-01T22:55:19.606Z,1.20
2022-09-01T22:57:48.149Z,1.30
2022-09-01T23:00:18.057Z,1.40
2022-09-01T23:02:48.101Z,1.30
2022-09-01T23:05:18.504Z,1.40
2022-09-01T23:07:47.187Z,1.40
2022-09-01T23:10:16.117Z,1.20
2022-09-01T23:12:44.669Z,1.20
2022-09-01T23:15:13.353Z,1.15
2022-09-01T23:17:41.984Z,1.30
2022-09-01T23:20:13.753Z,1.50
2022-09-01T23:22:43.012Z,1.20
2022-09-01T23:25:12.379Z,1.10
2022-09-01T23:27:41.314Z,1.20
2022-09-01T23:30:11.548Z,1.40
2022-09-01T23:32:40.895Z,1.10
2022-09-01T23:35:09.983Z,1.20
2022-09-01T23:37:40.084Z,1.30
2022-09-01T23:40:10.626Z,1.27
2022-09-01T23:42:41.353Z,1.50
2022-09-01T23:45:10.645Z,1.60
2022-09-01T23:47:39.241Z,1.40
2022-09-01T23:50:08.466Z,1.20
2022-09-01T23:52:37.091Z,1.30
2022-09-01T23:55:07.699Z,1.23
2022-09-01T23:57:36.273Z,1.20
